Time;durP1;ratioP1;P1;durP2;ratioP2;P2;SDS_P1;SDS_P2;PMS_P1;PMS_P2;Temp;Humidity;BMP_temperature;BMP_pressure;BME280_temperature;BME280_humidity;BME280_pressure;Samples;Min_cycle;Max_cycle;Signal;HPM_P1;HPM_P2
2022/08/23 00:01:31;;;;;;;11.07;3.33;;;21.60;99.90;;;;;;5035789;28;20041;-73
2022/08/23 00:04:00;;;;;;;19.13;4.53;;;21.60;99.90;;;;;;5031858;28;20025;-72
2022/08/23 00:06:28;;;;;;;9.02;3.10;;;21.60;99.90;;;;;;5030523;28;20503;-72
2022/08/23 00:08:54;;;;;;;10.13;2.92;;;21.50;99.90;;;;;;5035924;28;20078;-74
2022/08/23 00:11:45;;;;;;;12.32;3.92;;;21.60;99.90;;;;;;5051671;28;20029;-73
2022/08/23 00:14:12;;;;;;;11.07;3.63;;;21.60;99.90;;;;;;5051540;28;20491;-73
2022/08/23 00:16:39;;;;;;;11.57;3.38;;;21.50;99.90;;;;;;5049707;28;20064;-72
2022/08/23 00:19:07;;;;;;;12.68;3.60;;;21.50;99.90;;;;;;5048222;28;20029;-73
2022/08/23 00:21:35;;;;;;;13.73;3.95;;;21.50;99.90;;;;;;5051440;28;20040;-71
2022/08/23 00:24:02;;;;;;;11.82;3.40;;;21.50;99.90;;;;;;5046282;28;20095;-72
2022/08/23 00:26:46;;;;;;;;;;;21.50;99.90;;;;;;5032142;28;20029;-72
2022/08/23 00:29:12;;;;;;;7.85;3.20;;;21.40;99.90;;;;;;5031705;28;19909;-72
2022/08/23 00:31:38;;;;;;;12.33;3.67;;;21.40;99.90;;;;;;5043611;28;20032;-72
2022/08/23 00:34:04;;;;;;;10.93;3.03;;;21.40;99.90;;;;;;5051330;28;20037;-72
2022/08/23 00:36:30;;;;;;;9.13;3.63;;;21.40;99.90;;;;;;5051268;28;20374;-73
2022/08/23 00:38:55;;;;;;;10.07;3.23;;;21.40;99.90;;;;;;5050543;28;20029;-74
2022/08/23 00:41:21;;;;;;;9.57;3.60;;;21.30;99.90;;;;;;5029799;28;20512;-74
2022/08/23 00:49:46;;;;;;;11.40;3.38;;;21.30;99.90;;;;;;5032945;28;20561;-73
2022/08/23 00:52:39;;;;;;;10.68;3.45;;;21.30;99.90;;;;;;5031709;28;20442;-72
2022/08/23 00:55:05;;;;;;;8.25;3.28;;;21.30;99.90;;;;;;5039158;28;20075;-72
2022/08/23 00:57:32;;;;;;;13.15;3.70;;;21.30;99.90;;;;;;5049476;28;20078;-72
2022/08/23 00:59:58;;;;;;;8.80;2.95;;;21.30;99.90;;;;;;5049916;28;20507;-72
2022/08/23 01:02:25;;;;;;;18.30;4.10;;;21.30;99.90;;;;;;5049084;28;20025;-73
2022/08/23 01:04:57;;;;;;;13.80;3.50;;;21.30;99.90;;;;;;5051220;28;20041;-73
2022/08/23 01:07:37;;;;;;;10.90;3.42;;;21.30;99.90;;;;;;5050848;28;20112;-73
2022/08/23 01:10:12;;;;;;;12.20;3.28;;;21.30;99.90;;;;;;5040901;28;20037;-73
2022/08/23 01:12:45;;;;;;;9.82;3.33;;;21.20;99.90;;;;;;5031286;28;20029;-75
2022/08/23 01:15:18;;;;;;;7.95;3.28;;;21.30;99.90;;;;;;5029627;28;20037;-73
2022/08/23 01:18:05;;;;;;;9.48;3.08;;;21.20;99.90;;;;;;5046740;28;20033;-73
2022/08/23 01:20:39;;;;;;;9.32;3.42;;;21.20;99.90;;;;;;5030985;28;20087;-72
2022/08/23 01:23:17;;;;;;;11.68;3.30;;;21.20;99.90;;;;;;5029259;28;20029;-73
2022/08/23 01:25:43;;;;;;;12.10;3.50;;;21.20;99.90;;;;;;5030858;28;20087;-71
2022/08/23 01:28:08;;;;;;;8.52;3.65;;;21.10;99.90;;;;;;5030514;28;20045;-72
2022/08/23 01:30:35;;;;;;;13.20;3.87;;;21.10;99.90;;;;;;5030628;28;20571;-74
2022/08/23 01:33:04;;;;;;;14.13;4.25;;;21.00;99.90;;;;;;5029064;28;20071;-72
2022/08/23 01:35:38;;;;;;;11.10;3.47;;;21.00;99.90;;;;;;5033982;28;20069;-72
2022/08/23 01:38:05;;;;;;;7.95;2.78;;;20.90;99.90;;;;;;5029003;28;20030;-71
2022/08/23 01:40:31;;;;;;;9.05;3.60;;;20.90;99.90;;;;;;5029055;28;20040;-73
2022/08/23 01:42:57;;;;;;;14.63;3.38;;;20.90;99.90;;;;;;5030238;28;20053;-72
2022/08/23 01:45:23;;;;;;;10.05;3.53;;;20.90;99.90;;;;;;5031102;28;20038;-72
2022/08/23 01:47:48;;;;;;;17.73;3.23;;;20.80;99.90;;;;;;5049028;28;20082;-72
2022/08/23 01:50:14;;;;;;;9.37;3.33;;;20.80;99.90;;;;;;5048958;28;20032;-73
2022/08/23 01:52:41;;;;;;;11.23;3.40;;;20.80;99.90;;;;;;5050356;28;20045;-73
2022/08/23 01:55:06;;;;;;;11.90;3.15;;;20.80;99.90;;;;;;5039718;28;20033;-73
2022/08/23 01:57:33;;;;;;;14.07;3.03;;;20.80;99.90;;;;;;5030173;28;20396;-73
2022/08/23 01:59:59;;;;;;;;;;;20.80;99.90;;;;;;5030907;28;20572;-74
2022/08/23 02:02:25;;;;;;;10.45;3.42;;;20.80;99.90;;;;;;5031141;28;19970;-72
2022/08/23 02:04:51;;;;;;;12.43;3.33;;;20.70;99.90;;;;;;5030520;28;20112;-72
2022/08/23 02:07:17;;;;;;;9.82;2.88;;;20.70;99.90;;;;;;5028904;28;20734;-71
2022/08/23 02:09:43;;;;;;;9.33;3.13;;;20.70;99.90;;;;;;5034014;28;20060;-71
2022/08/23 02:12:09;;;;;;;7.83;3.23;;;20.70;99.90;;;;;;5049991;28;20151;-71
2022/08/23 02:14:36;;;;;;;11.32;3.20;;;20.70;99.90;;;;;;5050201;28;20037;-72
2022/08/23 02:17:02;;;;;;;15.63;3.40;;;20.70;99.90;;;;;;5046648;28;20067;-73
2022/08/23 02:19:28;;;;;;;;;;;20.70;99.90;;;;;;5047290;28;20110;-73
2022/08/23 02:21:54;;;;;;;10.23;3.70;;;20.60;99.90;;;;;;5049800;28;19936;-73
2022/08/23 02:24:22;;;;;;;15.50;3.50;;;20.70;99.90;;;;;;5048518;28;20040;-73
2022/08/23 02:26:50;;;;;;;8.23;3.00;;;20.70;99.90;;;;;;5030723;28;20041;-74
2022/08/23 02:29:19;;;;;;;11.88;3.85;;;20.70;99.90;;;;;;5029943;28;20500;-73
2022/08/23 02:31:45;;;;;;;11.93;2.88;;;20.70;99.90;;;;;;5035587;28;20039;-72
2022/08/23 02:34:11;;;;;;;7.57;2.90;;;20.70;99.90;;;;;;5048462;28;20684;-72
2022/08/23 02:36:37;;;;;;;7.95;3.10;;;20.70;99.90;;;;;;5049647;28;20103;-72
2022/08/23 02:39:05;;;;;;;7.47;3.10;;;20.70;99.90;;;;;;5049688;28;20473;-72
2022/08/23 02:41:31;;;;;;;9.32;3.33;;;20.70;99.90;;;;;;5034659;28;20072;-73
2022/08/23 02:43:57;;;;;;;7.90;2.90;;;20.70;99.90;;;;;;5029613;28;20026;-72
2022/08/23 02:46:22;;;;;;;14.23;3.10;;;20.60;99.90;;;;;;5031455;28;20041;-73
2022/08/23 02:48:48;;;;;;;9.75;3.10;;;20.70;99.90;;;;;;5034331;28;20361;-73
2022/08/23 02:51:16;;;;;;;11.65;3.50;;;20.70;99.90;;;;;;5033782;28;20042;-74
2022/08/23 02:53:42;;;;;;;7.70;2.70;;;20.70;99.90;;;;;;5033385;28;20029;-73
2022/08/23 02:56:09;;;;;;;10.57;3.93;;;20.80;99.90;;;;;;5043173;28;20025;-72
2022/08/23 02:58:34;;;;;;;11.18;3.10;;;20.70;99.90;;;;;;5053742;28;20083;-72
2022/08/23 03:01:00;;;;;;;12.27;3.40;;;20.80;99.90;;;;;;5040781;28;20481;-74
2022/08/23 03:03:26;;;;;;;12.90;3.08;;;20.80;99.90;;;;;;5049275;28;20473;-73
2022/08/23 03:05:52;;;;;;;8.83;2.90;;;20.90;99.90;;;;;;5053444;28;20037;-72
2022/08/23 03:08:19;;;;;;;8.25;2.95;;;20.90;99.90;;;;;;5051924;28;20132;-72
2022/08/23 03:10:47;;;;;;;9.23;3.17;;;20.90;99.90;;;;;;5033314;28;20437;-72
2022/08/23 03:13:13;;;;;;;9.82;2.92;;;20.90;99.90;;;;;;5033069;28;20025;-73
2022/08/23 03:15:40;;;;;;;9.38;3.50;;;20.90;99.90;;;;;;5033220;28;20033;-72
2022/08/23 03:18:05;;;;;;;10.43;3.38;;;21.00;99.90;;;;;;5033718;28;20095;-72
2022/08/23 03:20:31;;;;;;;12.93;3.37;;;21.00;99.90;;;;;;5034274;28;20506;-72
2022/08/23 03:22:57;;;;;;;12.18;3.55;;;21.00;99.90;;;;;;5032761;28;20022;-73
2022/08/23 03:25:23;;;;;;;8.57;2.87;;;21.10;99.90;;;;;;5032713;28;20060;-73
2022/08/23 03:27:49;;;;;;;9.47;3.47;;;21.20;99.90;;;;;;5050854;28;20040;-73
2022/08/23 03:30:14;;;;;;;15.97;3.80;;;21.10;99.90;;;;;;5051393;28;20036;-73
2022/08/23 03:32:40;;;;;;;12.30;3.63;;;21.10;99.90;;;;;;5045485;28;20048;-73
2022/08/23 03:35:06;;;;;;;9.50;2.90;;;21.20;99.90;;;;;;5033071;28;20033;-73
2022/08/23 03:37:32;;;;;;;7.85;2.90;;;21.20;99.90;;;;;;5031385;28;20353;-73
2022/08/23 03:39:57;;;;;;;11.87;3.10;;;21.20;99.90;;;;;;5031308;28;20034;-75
2022/08/23 03:42:24;;;;;;;7.73;3.10;;;21.20;99.90;;;;;;5045477;28;20049;-73
2022/08/23 03:44:49;;;;;;;12.48;3.50;;;21.30;99.90;;;;;;5052298;28;20032;-73
2022/08/23 03:47:15;;;;;;;14.07;3.20;;;21.20;99.90;;;;;;5049072;28;20454;-72
2022/08/23 03:49:40;;;;;;;11.43;3.67;;;21.30;99.90;;;;;;5032332;28;20121;-72
2022/08/23 03:52:06;;;;;;;15.73;4.70;;;21.20;99.90;;;;;;5032365;28;20100;-73
2022/08/23 03:54:32;;;;;;;8.83;2.90;;;21.20;99.90;;;;;;5032565;28;20038;-73
2022/08/23 03:57:04;;;;;;;10.70;2.97;;;21.30;99.90;;;;;;5041421;28;20086;-73
2022/08/23 03:59:32;;;;;;;8.18;3.97;;;21.30;99.90;;;;;;5051456;28;20040;-74
2022/08/23 04:01:58;;;;;;;16.20;3.60;;;21.30;99.90;;;;;;5052034;28;20389;-73
2022/08/23 04:04:24;;;;;;;9.85;3.05;;;21.30;99.90;;;;;;5033281;28;20037;-72
2022/08/23 04:06:49;;;;;;;10.53;3.53;;;21.30;99.90;;;;;;5032188;28;20037;-73
2022/08/23 04:09:16;;;;;;;12.87;3.83;;;21.30;99.90;;;;;;5030672;28;20045;-72
2022/08/23 04:11:42;;;;;;;17.08;3.88;;;21.30;99.90;;;;;;5036871;28;20025;-71
2022/08/23 04:14:08;;;;;;;20.00;3.10;;;21.30;99.90;;;;;;5050542;28;20554;-72
2022/08/23 04:16:39;;;;;;;13.20;3.30;;;21.40;99.90;;;;;;5051663;28;20037;-74
2022/08/23 04:19:07;;;;;;;15.60;3.40;;;21.40;99.90;;;;;;5040234;28;20053;-74
2022/08/23 04:21:35;;;;;;;10.95;4.25;;;21.40;99.90;;;;;;5030425;28;20024;-73
2022/08/23 04:24:00;;;;;;;9.88;3.38;;;21.40;99.90;;;;;;5030354;28;20025;-72
2022/08/23 04:26:26;;;;;;;14.03;3.30;;;21.40;99.90;;;;;;5031856;28;20124;-72
2022/08/23 04:28:51;;;;;;;17.97;3.90;;;21.40;99.90;;;;;;5031891;28;20025;-72
2022/08/23 04:31:19;;;;;;;11.30;3.40;;;21.40;99.90;;;;;;5031984;28;20025;-73
2022/08/23 04:33:44;;;;;;;11.32;3.20;;;21.40;99.90;;;;;;5037362;28;20456;-73
2022/08/23 04:36:10;;;;;;;8.37;3.40;;;21.50;99.90;;;;;;5050323;28;20049;-75
2022/08/23 04:38:35;;;;;;;15.80;4.13;;;21.50;99.90;;;;;;5051619;28;20037;-72
2022/08/23 04:43:45;;;;;;;10.00;3.45;;;21.50;99.90;;;;;;5033333;28;20040;-73
2022/08/23 04:46:15;;;;;;;17.30;4.00;;;21.60;99.90;;;;;;5031329;28;20034;-72
2022/08/23 04:48:45;;;;;;;15.07;4.25;;;21.60;99.90;;;;;;5035961;28;20032;-72
2022/08/23 04:51:11;;;;;;;15.75;4.05;;;21.60;99.90;;;;;;5051159;28;20037;-72
2022/08/23 04:53:38;;;;;;;18.88;4.20;;;21.70;99.90;;;;;;5051012;28;20036;-74
2022/08/23 04:56:05;;;;;;;12.75;3.92;;;21.70;99.90;;;;;;5051654;28;20041;-72
2022/08/23 04:58:32;;;;;;;24.40;4.55;;;21.70;99.90;;;;;;5050128;28;20075;-72
2022/08/23 05:00:59;;;;;;;27.02;4.78;;;21.80;99.90;;;;;;5051479;28;20212;-74
2022/08/23 05:03:25;;;;;;;12.85;3.72;;;21.90;99.90;;;;;;5050397;28;20081;-72
2022/08/23 05:05:52;;;;;;;14.48;4.32;;;21.90;99.90;;;;;;5049893;28;20037;-73
2022/08/23 05:08:18;;;;;;;15.35;3.75;;;21.90;99.90;;;;;;5049774;28;20586;-74
2022/08/23 05:10:44;;;;;;;13.60;3.57;;;21.90;99.90;;;;;;5048576;28;20033;-74
2022/08/23 05:13:09;;;;;;;18.30;4.15;;;22.00;99.90;;;;;;5042071;28;20113;-73
2022/08/23 05:15:35;;;;;;;17.40;4.37;;;22.10;99.90;;;;;;5029934;28;20037;-72
2022/08/23 05:18:01;;;;;;;18.63;3.43;;;22.10;99.90;;;;;;5031218;28;20037;-73
2022/08/23 05:20:26;;;;;;;15.30;4.07;;;22.10;99.90;;;;;;5030939;28;20074;-73
2022/08/23 05:22:53;;;;;;;14.30;3.97;;;22.10;99.90;;;;;;5046769;28;20070;-72
2022/08/23 05:25:19;;;;;;;16.15;3.95;;;22.10;99.90;;;;;;5032286;28;20037;-72
2022/08/23 05:27:45;;;;;;;19.95;4.35;;;22.20;99.90;;;;;;5032951;28;20534;-73
2022/08/23 05:30:11;;;;;;;15.05;3.67;;;22.30;99.90;;;;;;5049528;28;20093;-72
2022/08/23 05:32:37;;;;;;;15.48;4.85;;;22.30;99.90;;;;;;5050673;28;20025;-72
2022/08/23 05:35:03;;;;;;;21.15;4.20;;;22.40;99.90;;;;;;5040451;28;20029;-71
2022/08/23 05:37:29;;;;;;;26.45;3.72;;;22.30;99.90;;;;;;5030928;28;20056;-71
2022/08/23 05:39:54;;;;;;;25.93;4.57;;;22.40;99.90;;;;;;5029216;28;20033;-73
2022/08/23 05:42:20;;;;;;;21.50;4.27;;;22.40;99.90;;;;;;5030583;28;20123;-71
2022/08/23 05:44:46;;;;;;;15.87;4.30;;;22.40;99.90;;;;;;5046757;28;20445;-72
2022/08/23 05:47:14;;;;;;;18.67;4.10;;;22.40;99.90;;;;;;5050368;28;20350;-73
2022/08/23 05:49:39;;;;;;;21.63;5.32;;;22.40;99.90;;;;;;5044981;28;20033;-72
2022/08/23 05:52:10;;;;;;;23.50;5.63;;;22.40;99.90;;;;;;5030399;28;20037;-73
2022/08/23 05:54:36;;;;;;;25.20;5.30;;;22.40;99.90;;;;;;5030477;28;20034;-72
2022/08/23 05:57:03;;;;;;;19.92;4.22;;;22.50;99.90;;;;;;5030189;28;20347;-73
2022/08/23 05:59:29;;;;;;;22.05;4.30;;;22.50;99.90;;;;;;5030273;28;20042;-73
2022/08/23 06:01:55;;;;;;;31.15;5.72;;;22.60;99.90;;;;;;5028618;28;20116;-73
2022/08/23 06:04:21;;;;;;;17.55;4.05;;;22.50;99.90;;;;;;5030288;28;20440;-73
2022/08/23 06:06:47;;;;;;;13.18;4.35;;;22.60;99.90;;;;;;5050223;28;20059;-74
2022/08/23 06:09:16;;;;;;;24.40;5.13;;;22.60;99.90;;;;;;5050502;28;20076;-73
2022/08/23 06:11:44;;;;;;;17.65;4.20;;;22.60;99.90;;;;;;5048571;28;20029;-73
2022/08/23 06:14:10;;;;;;;23.10;4.63;;;22.60;99.90;;;;;;5040952;28;20393;-73
2022/08/23 06:16:40;;;;;;;27.48;4.65;;;22.70;99.90;;;;;;5030064;28;20108;-73
2022/08/23 06:19:07;;;;;;;18.27;4.32;;;22.70;99.90;;;;;;5029929;28;20104;-72
2022/08/23 06:21:33;;;;;;;20.10;4.40;;;22.80;99.90;;;;;;5032345;28;20154;-74
2022/08/23 06:24:00;;;;;;;33.10;5.18;;;22.90;99.90;;;;;;5033859;28;20068;-74
2022/08/23 06:26:32;;;;;;;25.45;5.05;;;23.00;99.90;;;;;;5032978;28;20026;-73
2022/08/23 06:29:01;;;;;;;30.58;5.57;;;23.10;99.90;;;;;;5053689;28;20079;-73
2022/08/23 06:31:46;;;;;;;20.15;4.95;;;23.20;99.90;;;;;;5053783;28;20017;-73
2022/08/23 06:34:25;;;;;;;29.67;5.07;;;23.40;99.90;;;;;;5052583;28;20033;-73
2022/08/23 06:36:54;;;;;;;29.60;5.57;;;23.50;99.90;;;;;;5036442;28;20033;-73
2022/08/23 06:39:22;;;;;;;33.72;6.32;;;23.60;99.90;;;;;;5033849;28;20038;-75
2022/08/23 06:41:49;;;;;;;33.47;5.80;;;23.70;99.90;;;;;;5033687;28;20103;-74
2022/08/23 06:44:18;;;;;;;26.83;6.22;;;23.70;99.90;;;;;;5033745;28;20045;-74
2022/08/23 06:46:47;;;;;;;28.85;5.93;;;23.90;99.90;;;;;;5033580;28;20068;-73
2022/08/23 06:49:13;;;;;;;27.35;6.35;;;24.00;99.60;;;;;;5033529;28;20041;-72
2022/08/23 06:51:42;;;;;;;26.58;5.75;;;24.10;99.90;;;;;;5046331;28;20385;-72
2022/08/23 06:54:11;;;;;;;35.90;6.95;;;24.20;99.80;;;;;;5051963;28;20064;-73
2022/08/23 06:56:38;;;;;;;39.20;6.68;;;24.30;99.10;;;;;;5052991;28;20032;-73
2022/08/23 06:59:05;;;;;;;32.20;5.90;;;24.40;99.20;;;;;;5053027;28;20116;-73
2022/08/23 07:01:36;;;;;;;40.03;5.95;;;24.40;99.10;;;;;;5053171;28;20032;-73
2022/08/23 07:04:04;;;;;;;32.38;5.70;;;24.50;99.10;;;;;;5053300;28;20040;-73
2022/08/23 07:06:29;;;;;;;27.38;6.13;;;24.50;98.80;;;;;;5051342;28;20029;-72
2022/08/23 07:08:55;;;;;;;47.13;7.00;;;24.60;98.80;;;;;;5052888;28;20028;-72
2022/08/23 07:11:22;;;;;;;39.05;7.80;;;24.70;98.70;;;;;;5052925;28;20025;-72
2022/08/23 07:13:48;;;;;;;;;;;24.70;98.70;;;;;;5053301;28;20057;-72
2022/08/23 07:16:16;;;;;;;31.98;6.35;;;24.70;98.70;;;;;;5034909;28;20317;-73
2022/08/23 07:18:43;;;;;;;35.53;5.32;;;24.70;98.40;;;;;;5032907;28;20025;-73
2022/08/23 07:21:09;;;;;;;;;;;24.80;98.40;;;;;;5038222;28;20129;-73
2022/08/23 07:23:35;;;;;;;29.50;6.90;;;24.90;98.40;;;;;;5052680;28;19999;-74
2022/08/23 07:26:05;;;;;;;26.60;5.88;;;24.90;98.20;;;;;;5053329;28;20029;-74
2022/08/23 07:28:31;;;;;;;29.88;5.93;;;24.90;98.10;;;;;;5051221;28;20032;-74
2022/08/23 07:31:16;;;;;;;39.38;7.30;;;25.00;98.20;;;;;;5038844;28;20034;-74
2022/08/23 07:33:43;;;;;;;24.08;6.18;;;25.20;98.10;;;;;;5031391;28;20033;-74
2022/08/23 07:36:13;;;;;;;39.22;6.05;;;25.30;98.60;;;;;;5043877;28;20041;-74
2022/08/23 07:38:38;;;;;;;37.65;6.22;;;25.40;98.00;;;;;;5052209;28;20116;-73
2022/08/23 07:41:04;;;;;;;30.57;5.40;;;25.40;97.50;;;;;;5050247;28;20160;-74
2022/08/23 07:43:31;;;;;;;36.87;5.33;;;25.50;97.30;;;;;;5032440;28;20032;-72
2022/08/23 07:45:57;;;;;;;34.00;7.35;;;25.60;97.70;;;;;;5031041;28;20293;-73
2022/08/23 07:48:23;;;;;;;44.05;6.82;;;25.70;97.40;;;;;;5032407;28;20025;-74
2022/08/23 07:50:53;;;;;;;42.65;7.65;;;25.70;96.40;;;;;;5039416;28;20048;-75
2022/08/23 07:53:19;;;;;;;31.02;6.00;;;25.80;96.70;;;;;;5052112;28;20025;-71
2022/08/23 07:55:45;;;;;;;33.00;6.87;;;26.00;96.70;;;;;;5052558;28;20373;-73
2022/08/23 07:58:11;;;;;;;47.67;7.67;;;26.20;96.40;;;;;;5050669;28;20356;-73
2022/08/23 08:00:37;;;;;;;;;;;26.20;96.00;;;;;;5036898;28;20049;-72
2022/08/23 08:03:02;;;;;;;41.75;7.90;;;26.20;95.70;;;;;;5031563;28;19905;-73
2022/08/23 08:05:31;;;;;;;35.60;5.77;;;26.40;95.80;;;;;;5032666;28;20476;-71
2022/08/23 08:07:57;;;;;;;37.08;6.88;;;26.30;95.00;;;;;;5036104;28;20413;-71
2022/08/23 08:10:22;;;;;;;41.40;6.32;;;26.30;95.20;;;;;;5051344;28;20028;-73
2022/08/23 08:12:48;;;;;;;54.00;8.60;;;26.30;94.80;;;;;;5051712;28;20041;-72
2022/08/23 08:15:15;;;;;;;43.70;6.95;;;26.40;95.30;;;;;;5050028;28;20684;-72
2022/08/23 08:17:40;;;;;;;37.90;6.93;;;26.40;94.70;;;;;;5051253;28;20499;-72
2022/08/23 08:20:07;;;;;;;31.00;8.20;;;26.40;94.70;;;;;;5049973;28;20036;-70
2022/08/23 08:22:33;;;;;;;45.22;7.78;;;26.30;94.60;;;;;;5033528;28;20485;-70
2022/08/23 08:24:58;;;;;;;34.20;7.13;;;26.30;94.50;;;;;;5031718;28;20120;-70
2022/08/23 08:27:24;;;;;;;35.13;5.70;;;26.30;94.30;;;;;;5030865;28;20478;-70
2022/08/23 08:29:49;;;;;;;35.80;6.20;;;26.40;94.30;;;;;;5036738;28;20044;-71
2022/08/23 08:32:16;;;;;;;39.73;7.90;;;26.50;93.90;;;;;;5031178;28;20479;-70
2022/08/23 08:34:42;;;;;;;40.78;7.70;;;26.70;93.80;;;;;;5031695;28;20033;-70
2022/08/23 08:37:07;;;;;;;48.28;7.35;;;26.70;93.90;;;;;;5042910;28;20477;-70
2022/08/23 08:39:33;;;;;;;46.97;7.80;;;26.60;93.70;;;;;;5051527;28;20025;-70
2022/08/23 08:42:11;;;;;;;40.00;6.23;;;26.60;93.80;;;;;;5051512;28;20057;-70
2022/08/23 08:44:39;;;;;;;28.67;6.28;;;26.70;93.50;;;;;;5049981;28;20392;-70
2022/08/23 08:47:14;;;;;;;45.92;7.85;;;26.70;93.40;;;;;;5051425;28;20438;-69
2022/08/23 08:49:58;;;;;;;33.90;6.60;;;26.60;93.30;;;;;;5051174;28;20087;-70
2022/08/23 08:52:27;;;;;;;31.95;5.90;;;26.60;93.60;;;;;;5050017;28;20029;-70
2022/08/23 08:55:22;;;;;;;36.60;6.30;;;26.80;93.60;;;;;;5051470;28;20041;-70
2022/08/23 08:57:50;;;;;;;25.23;6.55;;;26.90;93.60;;;;;;5050954;28;20044;-70
2022/08/23 09:00:29;;;;;;;28.60;6.65;;;27.20;92.70;;;;;;5047003;28;20026;-71
2022/08/23 09:02:58;;;;;;;33.30;7.03;;;27.30;92.70;;;;;;5041425;28;20024;-70
2022/08/23 09:05:30;;;;;;;27.45;5.88;;;27.50;92.00;;;;;;5051143;28;20575;-71
2022/08/23 09:08:08;;;;;;;34.25;6.82;;;27.40;91.90;;;;;;5050727;28;20033;-70
2022/08/23 09:10:48;;;;;;;32.92;5.63;;;27.20;91.90;;;;;;5051270;28;20037;-70
2022/08/23 09:13:37;;;;;;;27.73;6.22;;;27.00;92.10;;;;;;5051015;28;20024;-70
2022/08/23 09:16:11;;;;;;;24.25;5.60;;;26.90;92.40;;;;;;5042217;28;20044;-71
2022/08/23 09:18:36;;;;;;;22.73;5.13;;;26.90;92.20;;;;;;5030985;28;20426;-70
2022/08/23 09:21:05;;;;;;;25.42;5.40;;;26.70;92.50;;;;;;5031356;28;20053;-71
2022/08/23 09:23:39;;;;;;;28.48;4.68;;;26.60;92.40;;;;;;5032147;28;20109;-70
2022/08/23 09:26:18;;;;;;;27.42;5.63;;;26.60;92.00;;;;;;5032403;28;20030;-71
2022/08/23 09:28:45;;;;;;;21.60;4.57;;;26.70;90.40;;;;;;5039280;28;20048;-70
2022/08/23 09:31:12;;;;;;;17.83;4.47;;;26.70;90.00;;;;;;5042425;28;20122;-71
2022/08/23 09:33:41;;;;;;;23.30;4.15;;;27.00;90.00;;;;;;5030597;28;20069;-70
2022/08/23 09:36:25;;;;;;;24.58;4.18;;;27.20;88.10;;;;;;5033924;28;20033;-70
2022/08/23 09:38:52;;;;;;;17.63;4.05;;;27.60;89.00;;;;;;5048306;28;20044;-71
2022/08/23 09:41:22;;;;;;;20.10;3.88;;;28.00;87.90;;;;;;5050360;28;20504;-70
2022/08/23 09:43:49;;;;;;;19.40;3.70;;;28.30;86.70;;;;;;5036897;28;20040;-70
2022/08/23 09:46:26;;;;;;;15.93;3.97;;;28.30;83.50;;;;;;5030459;28;20025;-70
2022/08/23 09:48:54;;;;;;;;;;;28.50;84.00;;;;;;5030710;28;20041;-70
2022/08/23 09:51:22;;;;;;;16.08;4.85;;;28.60;83.00;;;;;;5030197;28;20327;-70
2022/08/23 09:53:52;;;;;;;19.73;3.63;;;28.60;82.50;;;;;;5032063;28;20420;-71
2022/08/23 09:56:24;;;;;;;11.95;3.60;;;28.60;81.60;;;;;;5030565;28;20125;-71
2022/08/23 09:58:52;;;;;;;17.25;3.33;;;28.60;79.00;;;;;;5030278;28;20064;-70
2022/08/23 10:01:22;;;;;;;10.75;2.92;;;28.50;78.00;;;;;;5035268;28;20036;-70
2022/08/23 10:04:13;;;;;;;13.65;3.13;;;28.60;78.30;;;;;;5049698;28;20032;-71
2022/08/23 10:06:42;;;;;;;12.70;3.30;;;28.80;77.60;;;;;;5050299;28;20589;-70
2022/08/23 10:09:20;;;;;;;14.75;3.75;;;28.60;77.60;;;;;;5044146;28;20040;-70
2022/08/23 10:11:46;;;;;;;13.35;3.30;;;28.40;78.60;;;;;;5039625;28;20473;-71
2022/08/23 10:14:17;;;;;;;15.43;4.57;;;28.00;79.30;;;;;;5050269;28;20105;-70
2022/08/23 10:17:13;;;;;;;13.75;3.38;;;27.80;79.30;;;;;;5043500;28;20266;-69
2022/08/23 10:20:09;;;;;;;10.25;3.42;;;27.60;80.20;;;;;;5031270;28;20080;-70
2022/08/23 10:22:44;;;;;;;13.32;2.97;;;27.50;80.40;;;;;;5041687;28;20481;-70
2022/08/23 10:25:22;;;;;;;16.17;3.83;;;27.40;80.50;;;;;;5049705;28;20033;-70
2022/08/23 10:31:20;;;;;;;13.50;3.65;;;28.50;79.50;;;;;;5041310;28;20125;-71
2022/08/23 10:33:59;;;;;;;15.30;4.50;;;28.90;78.30;;;;;;5029330;28;20146;-71
2022/08/23 10:36:32;;;;;;;11.23;3.22;;;29.10;76.00;;;;;;5035689;28;20116;-70
2022/08/23 10:39:02;;;;;;;9.43;2.95;;;29.10;75.20;;;;;;5048760;28;20051;-71
2022/08/23 10:41:46;;;;;;;9.07;2.80;;;28.70;74.80;;;;;;5049052;28;20496;-71
2022/08/23 10:44:29;;;;;;;11.80;2.67;;;28.60;74.00;;;;;;5049005;28;20431;-71
2022/08/23 10:47:21;;;;;;;7.93;2.58;;;28.60;74.70;;;;;;5048531;28;20032;-70
2022/08/23 10:49:50;;;;;;;10.02;2.75;;;29.10;73.70;;;;;;5048963;28;20094;-71
2022/08/23 10:52:22;;;;;;;9.77;2.40;;;29.80;71.70;;;;;;5043921;28;20029;-71
2022/08/23 10:54:59;;;;;;;13.85;3.42;;;30.40;69.40;;;;;;5029577;28;20042;-71
2022/08/23 10:57:36;;;;;;;8.45;2.53;;;30.70;66.60;;;;;;5036112;28;20078;-72
2022/08/23 11:00:23;;;;;;;9.43;2.55;;;30.80;64.30;;;;;;5049040;28;20025;-71
2022/08/23 11:03:03;;;;;;;9.75;2.50;;;31.00;63.50;;;;;;5049141;28;20029;-71
2022/08/23 11:05:32;;;;;;;14.05;3.08;;;30.90;62.20;;;;;;5048765;28;20400;-70
2022/08/23 11:08:30;;;;;;;6.53;2.22;;;31.00;62.30;;;;;;5049474;28;20060;-70
2022/08/23 11:10:55;;;;;;;8.02;2.15;;;31.40;61.80;;;;;;5035959;28;20038;-71
2022/08/23 11:13:24;;;;;;;12.25;2.83;;;31.40;60.20;;;;;;5033451;28;20080;-71
2022/08/23 11:16:19;;;;;;;7.53;2.38;;;31.20;59.30;;;;;;5035596;28;20029;-71
2022/08/23 11:18:47;;;;;;;7.38;2.78;;;30.60;60.40;;;;;;5053333;28;20036;-69
2022/08/23 11:21:25;;;;;;;13.18;2.65;;;30.10;61.70;;;;;;5038795;28;20024;-71
2022/08/23 11:23:57;;;;;;;5.22;2.17;;;29.90;62.30;;;;;;5040146;28;20104;-70
2022/08/23 11:26:25;;;;;;;9.50;2.50;;;29.70;62.40;;;;;;5050225;28;20025;-69
2022/08/23 11:28:53;;;;;;;11.10;2.22;;;29.50;63.30;;;;;;5044886;28;20411;-70
2022/08/23 11:31:30;;;;;;;6.63;2.03;;;29.30;63.20;;;;;;5035255;28;20053;-70
2022/08/23 11:34:04;;;;;;;;;;;29.30;63.40;;;;;;5049224;28;20029;-70
2022/08/23 11:36:32;;;;;;;5.70;2.00;;;29.30;63.30;;;;;;5032402;28;19909;-70
2022/08/23 11:38:57;;;;;;;10.63;3.00;;;29.40;63.50;;;;;;5032651;28;20025;-70
2022/08/23 11:41:27;;;;;;;7.73;2.50;;;29.40;63.00;;;;;;5032431;28;20049;-70
2022/08/23 11:43:55;;;;;;;6.38;2.38;;;29.40;63.10;;;;;;5032549;28;20034;-70
2022/08/23 11:46:24;;;;;;;7.78;2.53;;;29.40;63.30;;;;;;5049488;28;20029;-70
2022/08/23 11:48:55;;;;;;;8.35;2.25;;;29.20;63.40;;;;;;5050912;28;20056;-70
2022/08/23 11:51:27;;;;;;;10.60;2.33;;;29.20;63.40;;;;;;5052207;28;20029;-70
2022/08/23 11:53:52;;;;;;;8.32;2.28;;;29.40;62.90;;;;;;5047159;28;20033;-70
2022/08/23 11:56:50;;;;;;;10.43;2.40;;;29.60;62.90;;;;;;5040178;28;20037;-70
2022/08/23 11:59:28;;;;;;;9.35;1.95;;;29.90;63.00;;;;;;5032279;28;20433;-68
2022/08/23 12:01:56;;;;;;;5.97;1.95;;;30.30;61.80;;;;;;5038705;28;20036;-68
2022/08/23 12:04:29;;;;;;;9.30;2.03;;;30.30;61.10;;;;;;5052980;28;20065;-69
2022/08/23 12:07:01;;;;;;;7.93;1.88;;;30.50;61.40;;;;;;5036788;28;20033;-69
2022/08/23 12:09:27;;;;;;;10.38;2.10;;;30.60;60.60;;;;;;5046755;28;20060;-69
2022/08/23 12:11:55;;;;;;;5.30;1.53;;;30.80;60.20;;;;;;5051538;28;20360;-68
2022/08/23 12:14:30;;;;;;;9.88;2.65;;;30.90;60.20;;;;;;5051563;28;20025;-68
2022/08/23 12:17:04;;;;;;;7.25;2.10;;;31.00;59.90;;;;;;5049144;28;20018;-68
2022/08/23 12:19:42;;;;;;;7.10;1.90;;;31.10;59.10;;;;;;5030852;28;20749;-69
2022/08/23 12:22:12;;;;;;;5.60;1.98;;;31.00;59.70;;;;;;5032972;28;20104;-68
2022/08/23 12:24:53;;;;;;;8.25;2.28;;;31.00;59.90;;;;;;5041964;28;20381;-68
2022/08/23 12:27:41;;;;;;;5.45;2.22;;;31.20;60.40;;;;;;5039254;28;20385;-68
2022/08/23 12:30:12;;;;;;;7.95;2.22;;;31.20;60.20;;;;;;5046666;28;20029;-68
2022/08/23 12:32:53;;;;;;;9.63;2.00;;;31.30;59.20;;;;;;5052622;28;20036;-68
2022/08/23 12:35:57;;;;;;;9.10;2.60;;;31.20;59.00;;;;;;5051881;28;20037;-69
2022/08/23 12:38:47;;;;;;;6.72;2.08;;;31.10;59.30;;;;;;5037652;28;20090;-68
2022/08/23 12:41:27;;;;;;;11.38;2.20;;;31.10;59.60;;;;;;5050541;28;20033;-69
2022/08/23 12:44:08;;;;;;;6.88;2.30;;;31.20;59.70;;;;;;5050313;28;20405;-68
2022/08/23 12:46:40;;;;;;;7.55;2.30;;;31.20;58.20;;;;;;5032667;28;20104;-67
2022/08/23 12:49:07;;;;;;;9.00;2.22;;;31.20;58.40;;;;;;5032168;28;20027;-67
2022/08/23 12:51:55;;;;;;;15.27;2.53;;;31.20;58.60;;;;;;5032436;28;20472;-68
2022/08/23 12:54:31;;;;;;;7.55;2.22;;;31.10;58.80;;;;;;5032526;28;20175;-69
2022/08/23 12:56:58;;;;;;;5.40;1.90;;;31.10;59.40;;;;;;5032396;28;20024;-68
2022/08/23 12:59:39;;;;;;;8.13;2.67;;;31.10;60.00;;;;;;5037619;28;20052;-69
2022/08/23 13:02:11;;;;;;;11.52;2.28;;;31.10;60.40;;;;;;5047741;28;20080;-68
2022/08/23 13:04:39;;;;;;;13.10;3.65;;;31.10;59.80;;;;;;5045041;28;20036;-68
2022/08/23 13:07:08;;;;;;;7.50;2.40;;;31.20;59.30;;;;;;5034275;28;20459;-68